createdAt,value
2023-05-04T00:00:56.682Z,100.00
2023-05-04T00:05:59.048Z,100.00
2023-05-04T00:11:01.636Z,100.00
2023-05-04T00:16:04.003Z,100.00
2023-05-04T00:21:06.458Z,100.00
2023-05-04T00:26:08.815Z,100.00
2023-05-04T00:31:11.417Z,100.00
2023-05-04T00:36:15.096Z,100.00
2023-05-04T00:41:17.461Z,100.00
2023-05-04T00:46:19.829Z,100.00
2023-05-04T00:51:22.222Z,100.00
2023-05-04T00:56:24.752Z,100.00
2023-05-04T01:01:27.130Z,100.00
2023-05-04T01:06:29.491Z,100.00
2023-05-04T01:11:31.889Z,100.00
2023-05-04T01:16:34.246Z,100.00
2023-05-04T01:21:36.915Z,100.00
2023-05-04T01:26:39.336Z,100.00
2023-05-04T01:31:41.708Z,100.00
2023-05-04T01:36:44.030Z,100.00
2023-05-04T01:41:46.441Z,100.00
2023-05-04T01:46:48.779Z,100.00
2023-05-04T01:51:51.093Z,100.00
2023-05-04T01:56:53.479Z,100.00
2023-05-04T02:01:56.134Z,100.00
2023-05-04T02:06:58.514Z,100.00
2023-05-04T02:12:00.831Z,100.00
2023-05-04T02:17:03.256Z,100.00
2023-05-04T02:22:05.723Z,100.00
2023-05-04T02:27:08.262Z,100.00
2023-05-04T02:32:10.638Z,100.00
2023-05-04T02:37:13.087Z,100.00
2023-05-04T02:42:16.263Z,100.00
2023-05-04T02:47:18.608Z,100.00
2023-05-04T02:52:21.025Z,100.00
2023-05-04T02:57:23.515Z,100.00
2023-05-04T03:02:25.960Z,100.00
2023-05-04T03:07:28.435Z,100.00
2023-05-04T03:12:30.897Z,100.00
2023-05-04T03:17:33.306Z,100.00
2023-05-04T03:22:35.880Z,100.00
2023-05-04T03:27:38.254Z,100.00
2023-05-04T03:32:40.634Z,100.00
2023-05-04T03:37:43.212Z,100.00
2023-05-04T03:42:45.518Z,100.00
2023-05-04T03:47:47.939Z,100.00
2023-05-04T03:52:50.279Z,100.00
2023-05-04T03:57:52.611Z,100.00
2023-05-04T04:02:55.035Z,100.00
2023-05-04T04:07:57.469Z,100.00
2023-05-04T04:12:59.979Z,100.00
2023-05-04T04:18:02.441Z,100.00
2023-05-04T04:23:04.859Z,100.00
2023-05-04T04:28:07.328Z,100.00
2023-05-04T04:33:10.202Z,100.00
2023-05-04T04:38:12.632Z,100.00
2023-05-04T04:43:14.992Z,100.00
2023-05-04T04:48:18.638Z,100.00
2023-05-04T04:53:21.097Z,100.00
2023-05-04T04:58:23.696Z,100.00
2023-05-04T05:03:26.040Z,100.00
2023-05-04T05:08:28.380Z,100.00
2023-05-04T05:13:31.019Z,100.00
2023-05-04T05:18:33.833Z,100.00
2023-05-04T05:23:36.432Z,100.00
2023-05-04T05:28:39.364Z,100.00
2023-05-04T05:33:42.103Z,100.00
2023-05-04T05:38:44.933Z,100.00
2023-05-04T05:43:47.805Z,100.00
2023-05-04T05:48:50.612Z,100.00
2023-05-04T05:53:53.218Z,100.00
2023-05-04T05:58:56.464Z,100.00
2023-05-04T06:03:59.343Z,100.00
2023-05-04T06:09:02.266Z,100.00
2023-05-04T06:14:05.033Z,100.00
2023-05-04T06:19:07.816Z,100.00
2023-05-04T06:24:10.350Z,100.00
2023-05-04T06:29:12.683Z,100.00
2023-05-04T06:34:15.065Z,100.00
2023-05-04T06:39:17.471Z,100.00
2023-05-04T06:44:20.307Z,100.00
2023-05-04T06:49:23.086Z,100.00
2023-05-04T06:54:25.798Z,100.00
2023-05-04T06:59:28.995Z,100.00
2023-05-04T07:04:31.624Z,100.00
2023-05-04T07:09:34.013Z,100.00
2023-05-04T07:14:36.882Z,100.00
2023-05-04T07:19:39.602Z,100.00
2023-05-04T07:24:42.622Z,100.00
2023-05-04T07:29:44.993Z,100.00
2023-05-04T07:34:47.777Z,100.00
2023-05-04T07:39:50.150Z,100.00
2023-05-04T07:44:52.767Z,100.00
2023-05-04T07:49:55.501Z,100.00
2023-05-04T07:54:58.229Z,100.00
2023-05-04T08:00:01.399Z,100.00
2023-05-04T08:05:04.230Z,100.00
2023-05-04T08:10:07.200Z,100.00
2023-05-04T08:15:10.704Z,100.00
2023-05-04T08:20:13.364Z,100.00
2023-05-04T08:25:15.928Z,100.00
2023-05-04T08:30:18.319Z,100.00
2023-05-04T08:35:21.148Z,100.00
2023-05-04T08:40:24.145Z,100.00
2023-05-04T08:45:27.222Z,100.00
2023-05-04T08:50:29.954Z,100.00
2023-05-04T08:55:32.978Z,100.00
2023-05-04T09:00:36.907Z,100.00
2023-05-04T09:05:39.812Z,100.00
2023-05-04T09:10:42.679Z,100.00
2023-05-04T09:15:45.270Z,100.00
2023-05-04T09:20:48.162Z,93.72
2023-05-04T09:25:50.565Z,100.00
2023-05-04T09:30:53.329Z,100.00
2023-05-04T09:35:56.036Z,100.00
2023-05-04T09:40:59.062Z,100.00
2023-05-04T09:46:01.785Z,100.00
2023-05-04T09:51:06.629Z,100.00
2023-05-04T09:56:09.951Z,100.00
2023-05-04T10:01:12.386Z,97.28
2023-05-04T10:06:14.764Z,95.53
2023-05-04T10:11:19.358Z,97.04
2023-05-04T10:16:24.626Z,96.65
2023-05-04T10:21:27.495Z,96.28
2023-05-04T10:26:30.252Z,94.78
2023-05-04T10:31:33.077Z,89.12
2023-05-04T10:36:35.454Z,89.18
2023-05-04T10:41:38.339Z,90.51
2023-05-04T10:46:41.311Z,94.87
2023-05-04T10:51:49.447Z,94.78
2023-05-04T10:56:52.568Z,89.51
2023-05-04T11:01:55.277Z,84.56
2023-05-04T11:06:57.978Z,80.81
2023-05-04T11:12:01.173Z,89.21
2023-05-04T11:17:07.378Z,88.73
2023-05-04T11:22:15.049Z,87.86
2023-05-04T11:27:17.508Z,84.77
2023-05-04T11:32:20.094Z,82.54
2023-05-04T11:37:23.314Z,84.96
2023-05-04T11:42:26.520Z,87.85
2023-05-04T11:47:29.649Z,88.55
2023-05-04T11:52:33.933Z,88.93
2023-05-04T11:57:37.358Z,88.41
2023-05-04T12:02:39.813Z,90.79
2023-05-04T12:07:42.266Z,79.74
2023-05-04T12:12:44.721Z,82.44
2023-05-04T12:17:47.063Z,75.45
2023-05-04T12:22:49.869Z,71.96
2023-05-04T12:27:52.254Z,80.19
2023-05-04T12:32:54.671Z,81.48
2023-05-04T12:37:57.424Z,81.50
2023-05-04T12:42:59.805Z,74.29
2023-05-04T12:48:02.357Z,73.64
2023-05-04T12:53:05.000Z,69.21
2023-05-04T12:58:07.642Z,61.23
2023-05-04T13:03:12.476Z,60.29
2023-05-04T13:08:15.183Z,58.43
2023-05-04T13:13:17.846Z,60.10
2023-05-04T13:18:20.519Z,69.55
2023-05-04T13:23:22.951Z,70.99
2023-05-04T13:28:25.478Z,64.07
2023-05-04T13:33:29.913Z,66.23
2023-05-04T13:38:33.342Z,64.25
2023-05-04T13:43:35.744Z,63.10
2023-05-04T13:48:38.269Z,58.31
2023-05-04T13:53:40.840Z,62.13
2023-05-04T13:58:43.523Z,64.61
2023-05-04T14:03:45.905Z,64.64
2023-05-04T14:08:48.334Z,64.08
2023-05-04T14:13:51.594Z,64.40
2023-05-04T14:18:54.105Z,61.82
2023-05-04T14:23:56.419Z,63.34
2023-05-04T14:28:58.766Z,62.30
2023-05-04T14:34:01.073Z,62.66
2023-05-04T14:39:03.605Z,61.91
2023-05-04T14:44:06.370Z,61.23
2023-05-04T14:49:08.996Z,59.71
2023-05-04T14:54:11.626Z,60.22
2023-05-04T14:59:14.088Z,59.22
2023-05-04T15:04:17.045Z,58.08
2023-05-04T15:09:19.409Z,57.95
2023-05-04T15:14:21.790Z,57.26
2023-05-04T15:19:24.177Z,56.40
2023-05-04T15:24:26.558Z,55.21
2023-05-04T15:29:28.914Z,55.36
2023-05-04T15:34:31.517Z,56.17
2023-05-04T15:39:33.892Z,56.76
2023-05-04T15:44:36.269Z,55.75
2023-05-04T15:49:38.864Z,55.45
2023-05-04T15:54:41.269Z,55.16
2023-05-04T15:59:43.918Z,55.93
2023-05-04T16:04:46.290Z,55.67
2023-05-04T16:09:50.250Z,56.41
2023-05-04T16:14:53.010Z,56.57
2023-05-04T16:19:55.440Z,55.95
2023-05-04T16:24:58.418Z,57.10
2023-05-04T16:30:00.854Z,56.97
2023-05-04T16:35:03.497Z,56.43
2023-05-04T16:40:06.136Z,56.43
2023-05-04T16:45:09.507Z,56.51
2023-05-04T16:50:11.997Z,56.98
2023-05-04T16:55:14.450Z,57.80
2023-05-04T17:00:17.032Z,58.75
2023-05-04T17:05:19.696Z,59.77
2023-05-04T17:10:22.079Z,59.42
2023-05-04T17:15:24.832Z,59.88
2023-05-04T17:20:30.727Z,61.68
2023-05-04T17:25:34.332Z,62.58
2023-05-04T17:30:37.266Z,63.52
2023-05-04T17:35:39.792Z,65.70
2023-05-04T17:40:42.654Z,67.46
2023-05-04T17:45:45.449Z,71.18
2023-05-04T17:50:47.902Z,74.00
2023-05-04T17:55:50.405Z,78.16
2023-05-04T18:00:53.375Z,81.62
2023-05-04T18:05:56.584Z,83.14
2023-05-04T18:10:59.308Z,84.39
2023-05-04T18:16:01.742Z,84.18
2023-05-04T18:21:04.548Z,83.44
2023-05-04T18:26:06.965Z,84.39
2023-05-04T18:31:10.007Z,86.14
2023-05-04T18:36:12.398Z,89.02
2023-05-04T18:41:14.886Z,89.24
2023-05-04T18:46:17.302Z,91.65
2023-05-04T18:51:20.372Z,91.86
2023-05-04T18:56:22.876Z,92.29
2023-05-04T19:01:26.417Z,93.97
2023-05-04T19:06:29.371Z,93.99
2023-05-04T19:11:32.388Z,93.68
2023-05-04T19:16:34.740Z,95.25
2023-05-04T19:21:37.301Z,94.76
2023-05-04T19:26:41.230Z,93.81
2023-05-04T19:31:43.690Z,93.71
2023-05-04T19:36:46.249Z,95.17
2023-05-04T19:41:49.010Z,96.10
2023-05-04T19:46:52.457Z,96.70
2023-05-04T19:51:55.825Z,96.58
2023-05-04T19:56:58.347Z,97.38
2023-05-04T20:02:01.536Z,99.75
2023-05-04T20:07:04.360Z,99.66
2023-05-04T20:12:06.926Z,100.00
2023-05-04T20:17:09.638Z,100.00
2023-05-04T20:22:12.039Z,100.00
2023-05-04T20:27:14.448Z,100.00
2023-05-04T20:32:17.034Z,100.00
2023-05-04T20:37:19.601Z,100.00
2023-05-04T20:42:22.402Z,100.00
2023-05-04T20:47:24.933Z,100.00
2023-05-04T20:52:28.205Z,100.00
2023-05-04T20:57:30.950Z,100.00
2023-05-04T21:02:33.697Z,100.00
2023-05-04T21:07:36.404Z,100.00
2023-05-04T21:12:39.384Z,100.00
2023-05-04T21:17:42.317Z,100.00
2023-05-04T21:22:45.114Z,100.00
2023-05-04T21:27:47.966Z,100.00
2023-05-04T21:32:50.985Z,100.00
2023-05-04T21:37:53.334Z,100.00
2023-05-04T21:42:56.179Z,100.00
2023-05-04T21:47:59.612Z,100.00
2023-05-04T21:53:02.588Z,100.00
2023-05-04T21:58:05.060Z,100.00
2023-05-04T22:03:08.736Z,100.00
2023-05-04T22:08:11.126Z,100.00
2023-05-04T22:13:13.991Z,100.00
2023-05-04T22:18:17.111Z,100.00
2023-05-04T22:23:20.010Z,100.00
2023-05-04T22:28:23.158Z,100.00
2023-05-04T22:33:25.816Z,100.00
2023-05-04T22:38:29.182Z,100.00
2023-05-04T22:43:31.525Z,100.00
2023-05-04T22:48:34.800Z,100.00
2023-05-04T22:53:37.317Z,100.00
2023-05-04T22:58:40.413Z,100.00
2023-05-04T23:03:44.677Z,100.00
2023-05-04T23:08:47.725Z,100.00
2023-05-04T23:13:51.282Z,100.00
2023-05-04T23:18:54.368Z,100.00
2023-05-04T23:23:57.334Z,100.00
2023-05-04T23:29:00.083Z,100.00
2023-05-04T23:34:02.646Z,100.00
2023-05-04T23:39:05.156Z,100.00
2023-05-04T23:44:08.391Z,100.00
2023-05-04T23:49:10.753Z,100.00
2023-05-04T23:54:13.182Z,100.00
2023-05-04T23:59:15.608Z,100.00
